createdAt,value
2023-01-27T00:01:18.329Z,88.03
2023-01-27T00:03:46.948Z,87.99
2023-01-27T00:06:15.525Z,87.20
2023-01-27T00:08:44.048Z,88.21
2023-01-27T00:11:29.890Z,88.64
2023-01-27T00:13:59.881Z,88.34
2023-01-27T00:16:28.394Z,88.29
2023-01-27T00:18:56.852Z,87.64
2023-01-27T00:21:42.687Z,87.61
2023-01-27T00:24:31.660Z,87.39
2023-01-27T00:27:09.312Z,87.27
2023-01-27T00:29:41.786Z,87.02
2023-01-27T00:32:32.017Z,87.48
2023-01-27T00:35:03.488Z,87.17
2023-01-27T00:37:33.285Z,87.40
2023-01-27T00:40:01.809Z,87.24
2023-01-27T00:42:30.712Z,87.43
2023-01-27T00:45:17.880Z,87.89
2023-01-27T00:47:48.627Z,87.64
2023-01-27T00:50:17.700Z,87.99
2023-01-27T00:52:49.575Z,87.70
2023-01-27T00:55:18.576Z,87.46
2023-01-27T00:57:47.174Z,87.96
2023-01-27T01:00:20.515Z,87.84
2023-01-27T01:02:49.442Z,88.55
2023-01-27T01:05:18.053Z,87.97
2023-01-27T01:07:46.597Z,87.86
2023-01-27T01:10:17.396Z,87.63
2023-01-27T01:12:45.977Z,88.42
2023-01-27T01:15:17.648Z,88.48
2023-01-27T01:17:47.669Z,88.33
2023-01-27T01:20:16.342Z,88.67
2023-01-27T01:22:47.914Z,88.65
2023-01-27T01:25:19.245Z,89.03
2023-01-27T01:27:48.536Z,88.78
2023-01-27T01:30:18.175Z,89.90
2023-01-27T01:32:48.143Z,89.35
2023-01-27T01:35:16.657Z,89.65
2023-01-27T01:37:46.991Z,90.08
2023-01-27T01:40:16.475Z,90.02
2023-01-27T01:43:04.535Z,89.99
2023-01-27T01:45:48.835Z,90.39
2023-01-27T01:48:24.863Z,90.54
2023-01-27T01:50:58.505Z,90.01
2023-01-27T01:53:33.883Z,90.68
2023-01-27T01:56:11.802Z,90.47
2023-01-27T02:01:19.084Z,90.37
2023-01-27T02:03:53.394Z,89.86
2023-01-27T02:06:22.627Z,90.13
2023-01-27T02:08:52.214Z,89.33
2023-01-27T02:11:23.119Z,89.80
2023-01-27T02:13:55.683Z,89.80
2023-01-27T02:16:25.984Z,90.55
2023-01-27T02:18:55.993Z,89.73
2023-01-27T02:21:26.308Z,89.98
2023-01-27T02:24:02.083Z,91.04
2023-01-27T02:26:35.046Z,91.44
2023-01-27T02:29:09.875Z,92.02
2023-01-27T02:31:41.035Z,91.83
2023-01-27T02:34:12.561Z,92.12
2023-01-27T02:36:45.957Z,92.78
2023-01-27T02:39:18.187Z,92.44
2023-01-27T02:41:53.266Z,92.63
2023-01-27T02:44:23.576Z,92.84
2023-01-27T02:46:53.129Z,93.17
2023-01-27T02:49:21.690Z,94.01
2023-01-27T02:51:52.987Z,93.31
2023-01-27T02:54:21.954Z,93.46
2023-01-27T02:56:52.075Z,93.57
2023-01-27T02:59:20.603Z,93.80
2023-01-27T03:01:49.191Z,94.01
2023-01-27T03:04:17.774Z,94.01
2023-01-27T03:06:46.331Z,94.31
2023-01-27T03:09:17.861Z,94.07
2023-01-27T03:12:04.381Z,94.91
2023-01-27T03:14:52.202Z,95.41
2023-01-27T03:17:38.385Z,95.17
2023-01-27T03:20:08.023Z,95.73
2023-01-27T03:22:36.846Z,95.68
2023-01-27T03:25:12.947Z,96.18
2023-01-27T03:27:44.895Z,95.30
2023-01-27T03:30:15.138Z,95.39
2023-01-27T03:32:46.713Z,94.96
2023-01-27T03:35:19.985Z,94.78
2023-01-27T03:38:06.444Z,95.28
2023-01-27T03:40:54.825Z,95.76
2023-01-27T03:43:40.827Z,95.65
2023-01-27T03:46:17.007Z,95.25
2023-01-27T03:48:46.294Z,95.89
2023-01-27T03:51:14.794Z,95.55
2023-01-27T03:53:43.372Z,96.44
2023-01-27T03:56:12.564Z,96.49
2023-01-27T03:58:41.533Z,96.91
2023-01-27T04:01:16.808Z,97.30
2023-01-27T04:04:04.037Z,97.25
2023-01-27T04:06:52.137Z,96.73
2023-01-27T04:09:23.603Z,96.44
2023-01-27T04:11:54.916Z,96.86
2023-01-27T04:14:25.537Z,96.38
2023-01-27T04:16:56.854Z,97.05
2023-01-27T04:19:25.832Z,98.33
2023-01-27T04:21:55.040Z,97.62
2023-01-27T04:24:23.816Z,98.19
2023-01-27T04:26:55.769Z,97.14
2023-01-27T04:29:27.019Z,96.84
2023-01-27T04:31:57.740Z,96.90
2023-01-27T04:34:27.702Z,96.46
2023-01-27T04:36:56.839Z,96.07
2023-01-27T04:39:25.602Z,96.21
2023-01-27T04:41:54.062Z,95.84
2023-01-27T04:44:22.697Z,94.99
2023-01-27T04:46:51.551Z,94.90
2023-01-27T04:49:22.316Z,94.66
2023-01-27T04:51:51.084Z,94.38
2023-01-27T04:54:19.534Z,94.73
2023-01-27T04:56:57.580Z,95.26
2023-01-27T04:59:26.504Z,94.83
2023-01-27T05:01:55.299Z,95.19
2023-01-27T05:04:27.183Z,95.34
2023-01-27T05:06:56.052Z,94.83
2023-01-27T05:09:24.761Z,94.54
2023-01-27T05:11:53.235Z,94.97
2023-01-27T05:14:23.430Z,95.30
2023-01-27T05:16:52.009Z,95.86
2023-01-27T05:19:20.884Z,94.88
2023-01-27T05:21:54.682Z,94.61
2023-01-27T05:24:23.307Z,95.03
2023-01-27T05:26:51.755Z,94.58
2023-01-27T05:29:20.162Z,94.42
2023-01-27T05:31:48.806Z,95.10
2023-01-27T05:34:17.759Z,94.95
2023-01-27T05:36:46.518Z,94.86
2023-01-27T05:39:16.378Z,94.59
2023-01-27T05:41:44.963Z,94.52
2023-01-27T05:44:13.837Z,94.52
2023-01-27T05:46:42.966Z,95.52
2023-01-27T05:49:11.902Z,95.79
2023-01-27T05:51:40.769Z,95.00
2023-01-27T05:54:10.107Z,95.48
2023-01-27T05:56:40.636Z,95.05
2023-01-27T05:59:10.964Z,95.34
2023-01-27T06:01:39.697Z,94.78
2023-01-27T06:04:08.132Z,94.58
2023-01-27T06:06:36.907Z,94.48
2023-01-27T06:09:05.452Z,94.47
2023-01-27T06:11:34.180Z,94.56
2023-01-27T06:14:04.275Z,94.50
2023-01-27T06:16:33.113Z,94.81
2023-01-27T06:19:01.613Z,95.50
2023-01-27T06:21:30.223Z,95.71
2023-01-27T06:23:59.070Z,95.13
2023-01-27T06:26:27.663Z,95.50
2023-01-27T06:28:57.817Z,94.97
2023-01-27T06:31:28.392Z,94.71
2023-01-27T06:33:57.059Z,94.52
2023-01-27T06:36:25.789Z,94.09
2023-01-27T06:38:54.519Z,93.80
2023-01-27T06:41:23.591Z,93.30
2023-01-27T06:43:52.223Z,93.42
2023-01-27T06:46:20.787Z,93.82
2023-01-27T06:48:50.874Z,93.49
2023-01-27T06:51:19.464Z,94.43
2023-01-27T06:53:47.963Z,94.18
2023-01-27T06:56:17.608Z,94.01
2023-01-27T06:58:46.539Z,94.13
2023-01-27T07:01:15.412Z,94.20
2023-01-27T07:03:45.113Z,94.66
2023-01-27T07:06:18.970Z,95.00
2023-01-27T07:08:50.339Z,94.82
2023-01-27T07:11:19.051Z,95.18
2023-01-27T07:13:48.038Z,95.73
2023-01-27T07:16:16.667Z,95.63
2023-01-27T07:18:45.268Z,96.17
2023-01-27T07:21:15.215Z,96.57
2023-01-27T07:23:45.092Z,95.85
2023-01-27T07:26:24.613Z,95.95
2023-01-27T07:28:54.068Z,95.64
2023-01-27T07:31:22.935Z,95.59
2023-01-27T07:33:51.580Z,96.09
2023-01-27T07:36:20.154Z,95.82
2023-01-27T07:38:51.925Z,95.41
2023-01-27T07:41:22.874Z,95.90
2023-01-27T07:43:52.536Z,95.78
2023-01-27T07:46:21.323Z,95.88
2023-01-27T07:48:50.459Z,96.08
2023-01-27T07:51:19.206Z,95.73
2023-01-27T07:53:47.961Z,95.26
2023-01-27T07:56:18.099Z,95.12
2023-01-27T07:58:46.606Z,94.41
2023-01-27T08:01:15.210Z,94.45
2023-01-27T08:03:44.181Z,94.21
2023-01-27T08:06:14.179Z,93.98
2023-01-27T08:08:42.860Z,93.62
2023-01-27T08:11:14.298Z,93.04
2023-01-27T08:13:44.427Z,92.80
2023-01-27T08:16:15.229Z,93.30
2023-01-27T08:18:44.030Z,93.06
2023-01-27T08:21:13.335Z,92.21
2023-01-27T08:23:42.029Z,92.71
2023-01-27T08:26:10.530Z,92.83
2023-01-27T08:28:40.227Z,92.57
2023-01-27T08:31:19.450Z,91.79
2023-01-27T08:33:52.569Z,91.49
2023-01-27T08:36:24.116Z,91.84
2023-01-27T08:38:53.142Z,91.32
2023-01-27T08:41:23.477Z,91.25
2023-01-27T08:43:52.426Z,91.34
2023-01-27T08:46:22.503Z,91.06
2023-01-27T08:48:51.709Z,90.90
2023-01-27T08:51:20.973Z,90.74
2023-01-27T08:53:49.793Z,90.32
2023-01-27T08:56:20.605Z,90.29
2023-01-27T08:58:52.090Z,90.25
2023-01-27T09:01:22.268Z,90.65
2023-01-27T09:03:51.172Z,90.31
2023-01-27T09:06:21.629Z,90.35
2023-01-27T09:09:11.519Z,90.33
2023-01-27T09:11:42.965Z,90.36
2023-01-27T09:14:12.782Z,90.37
2023-01-27T09:16:42.726Z,90.41
2023-01-27T09:19:11.259Z,89.97
2023-01-27T09:21:39.760Z,89.70
2023-01-27T09:24:08.350Z,89.53
2023-01-27T09:26:37.044Z,89.52
2023-01-27T09:29:05.650Z,89.75
2023-01-27T09:31:34.167Z,89.41
2023-01-27T09:34:04.492Z,89.14
2023-01-27T09:36:37.751Z,89.15
2023-01-27T09:39:09.049Z,88.82
2023-01-27T09:42:09.500Z,89.05
2023-01-27T09:44:55.686Z,88.56
2023-01-27T09:47:37.797Z,88.95
2023-01-27T09:50:21.709Z,89.54
2023-01-27T09:53:17.021Z,89.00
2023-01-27T09:55:54.216Z,89.30
2023-01-27T09:58:35.589Z,89.23
2023-01-27T10:01:19.187Z,89.41
2023-01-27T10:04:22.048Z,89.54
2023-01-27T10:07:10.036Z,89.50
2023-01-27T10:10:02.284Z,89.43
2023-01-27T10:12:45.612Z,89.95
2023-01-27T10:15:32.643Z,89.40
2023-01-27T10:18:11.193Z,89.06
2023-01-27T10:20:50.991Z,88.60
2023-01-27T10:23:32.358Z,89.13
2023-01-27T10:26:10.955Z,88.30
2023-01-27T10:28:47.812Z,88.46
2023-01-27T10:31:22.245Z,88.62
2023-01-27T10:33:53.684Z,88.68
2023-01-27T10:36:30.009Z,88.15
2023-01-27T10:39:10.447Z,88.14
2023-01-27T10:41:51.079Z,88.16
2023-01-27T10:44:33.050Z,87.93
2023-01-27T10:47:12.806Z,87.67
2023-01-27T10:49:46.396Z,87.95
2023-01-27T10:52:19.889Z,88.28
2023-01-27T10:54:59.113Z,87.89
2023-01-27T10:57:34.943Z,87.07
2023-01-27T11:00:44.353Z,85.73
2023-01-27T11:03:06.301Z,84.58
2023-01-27T11:05:39.708Z,84.97
2023-01-27T11:08:13.932Z,84.04
2023-01-27T11:11:01.922Z,83.71
2023-01-27T11:13:32.560Z,83.24
2023-01-27T11:16:11.444Z,81.48
2023-01-27T11:18:53.417Z,82.12
2023-01-27T11:21:32.998Z,80.27
2023-01-27T11:24:17.464Z,80.49
2023-01-27T11:26:56.562Z,80.62
2023-01-27T11:29:34.932Z,80.65
2023-01-27T11:32:18.751Z,80.96
2023-01-27T11:35:01.982Z,80.84
2023-01-27T11:37:35.198Z,80.57
2023-01-27T11:40:19.258Z,79.75
2023-01-27T11:42:52.041Z,80.73
2023-01-27T11:45:22.455Z,79.30
2023-01-27T11:47:59.697Z,77.39
2023-01-27T11:50:34.759Z,75.95
2023-01-27T11:53:13.783Z,72.99
2023-01-27T11:55:47.194Z,70.46
2023-01-27T11:58:24.691Z,69.03
2023-01-27T12:01:00.807Z,71.17
2023-01-27T12:03:50.849Z,72.78
2023-01-27T12:06:28.825Z,74.80
2023-01-27T12:08:57.731Z,76.21
2023-01-27T12:11:28.421Z,76.59
2023-01-27T12:14:01.968Z,77.50
2023-01-27T12:16:45.591Z,77.62
2023-01-27T12:19:24.601Z,78.00
2023-01-27T12:21:57.243Z,77.20
2023-01-27T12:24:30.102Z,76.81
2023-01-27T12:27:01.171Z,77.30
2023-01-27T12:29:39.791Z,77.71
2023-01-27T12:32:16.059Z,78.03
2023-01-27T12:34:51.738Z,78.12
2023-01-27T12:37:25.139Z,78.69
2023-01-27T12:40:00.488Z,77.16
2023-01-27T12:42:39.701Z,76.96
2023-01-27T12:45:25.342Z,76.48
2023-01-27T12:48:16.665Z,77.35
2023-01-27T12:50:57.810Z,76.11
2023-01-27T12:53:28.493Z,76.84
2023-01-27T12:56:00.387Z,75.88
2023-01-27T12:58:36.887Z,77.08
2023-01-27T13:01:19.203Z,77.63
2023-01-27T13:03:53.506Z,78.41
2023-01-27T13:06:43.610Z,78.83
2023-01-27T13:09:26.364Z,79.51
2023-01-27T13:11:57.444Z,79.88
2023-01-27T13:14:30.647Z,79.96
2023-01-27T13:17:02.567Z,79.82
2023-01-27T13:19:43.967Z,79.27
2023-01-27T13:22:21.159Z,79.22
2023-01-27T13:24:55.649Z,79.25
2023-01-27T13:27:25.851Z,78.21
2023-01-27T13:30:00.786Z,77.46
2023-01-27T13:32:37.765Z,77.82
2023-01-27T13:35:18.480Z,78.33
2023-01-27T13:37:53.618Z,78.76
2023-01-27T13:40:27.631Z,79.01
2023-01-27T13:43:03.869Z,79.05
2023-01-27T13:45:40.197Z,79.65
2023-01-27T13:48:19.797Z,80.78
2023-01-27T13:50:53.054Z,80.71
2023-01-27T13:53:21.968Z,79.87
2023-01-27T13:56:12.269Z,81.05
2023-01-27T13:58:53.488Z,80.54
2023-01-27T14:01:29.662Z,80.96
2023-01-27T14:04:28.131Z,82.24
2023-01-27T14:07:05.513Z,82.29
2023-01-27T14:09:46.756Z,82.00
2023-01-27T14:12:31.985Z,82.55
2023-01-27T14:15:11.479Z,82.72
2023-01-27T14:17:47.858Z,83.03
2023-01-27T14:20:36.651Z,83.35
2023-01-27T14:23:30.607Z,84.11
2023-01-27T14:26:12.372Z,83.84
2023-01-27T14:28:55.775Z,84.05
2023-01-27T14:31:30.714Z,84.01
2023-01-27T14:34:11.208Z,83.26
2023-01-27T14:36:47.103Z,83.61
2023-01-27T14:39:24.583Z,83.19
2023-01-27T14:42:00.791Z,82.71
2023-01-27T14:44:44.016Z,82.82
2023-01-27T14:47:25.585Z,82.32
2023-01-27T14:50:32.560Z,82.69
2023-01-27T14:53:18.917Z,82.86
2023-01-27T14:55:56.244Z,83.11
2023-01-27T14:58:37.494Z,83.45
2023-01-27T15:01:17.446Z,83.80
2023-01-27T15:04:03.039Z,82.57
2023-01-27T15:06:39.318Z,82.85
2023-01-27T15:09:22.193Z,82.01
2023-01-27T15:12:23.627Z,81.93
2023-01-27T15:15:20.339Z,82.70
2023-01-27T15:18:03.945Z,82.83
2023-01-27T15:21:03.726Z,82.72
2023-01-27T15:23:51.142Z,83.81
2023-01-27T15:26:25.849Z,83.86
2023-01-27T15:28:55.338Z,83.94
2023-01-27T15:31:27.642Z,83.86
2023-01-27T15:34:01.807Z,84.44
2023-01-27T15:36:37.183Z,85.12
2023-01-27T15:39:25.932Z,85.69
2023-01-27T15:42:12.686Z,86.01
2023-01-27T15:44:58.691Z,86.74
2023-01-27T15:47:29.847Z,86.42
2023-01-27T15:50:08.287Z,86.57
2023-01-27T15:52:42.594Z,86.73
2023-01-27T15:55:25.871Z,85.90
2023-01-27T15:58:06.083Z,85.83
2023-01-27T16:00:37.900Z,86.55
2023-01-27T16:03:16.641Z,86.62
2023-01-27T16:05:46.527Z,86.75
2023-01-27T16:08:17.296Z,86.25
2023-01-27T16:10:46.774Z,85.66
2023-01-27T16:13:27.626Z,85.53
2023-01-27T16:16:23.514Z,85.48
2023-01-27T16:19:00.923Z,85.56
2023-01-27T16:21:41.238Z,84.83
2023-01-27T16:24:20.662Z,84.62
2023-01-27T16:26:57.359Z,83.93
2023-01-27T16:29:37.992Z,83.94
2023-01-27T16:32:14.625Z,83.85
2023-01-27T16:34:47.801Z,83.73
2023-01-27T16:37:24.893Z,83.89
2023-01-27T16:40:00.132Z,84.23
2023-01-27T16:42:33.646Z,84.19
2023-01-27T16:45:16.795Z,84.03
2023-01-27T16:47:50.805Z,84.44
2023-01-27T16:50:36.548Z,84.09
2023-01-27T16:53:07.899Z,84.02
2023-01-27T16:55:40.698Z,83.84
2023-01-27T16:58:24.389Z,83.28
2023-01-27T17:00:56.797Z,82.99
2023-01-27T17:03:34.044Z,83.35
2023-01-27T17:06:05.249Z,82.60
2023-01-27T17:08:36.372Z,82.39
2023-01-27T17:11:18.587Z,82.73
2023-01-27T17:13:50.124Z,82.98
2023-01-27T17:16:25.511Z,82.69
2023-01-27T17:18:56.914Z,82.95
2023-01-27T17:21:30.394Z,82.63
2023-01-27T17:24:07.207Z,82.78
2023-01-27T17:26:36.718Z,82.43
2023-01-27T17:29:05.715Z,83.20
2023-01-27T17:31:39.373Z,83.28
2023-01-27T17:34:17.475Z,83.14
2023-01-27T17:37:15.403Z,83.83
2023-01-27T17:39:45.011Z,83.53
2023-01-27T17:42:16.821Z,83.38
2023-01-27T17:44:45.821Z,83.51
2023-01-27T17:47:17.832Z,84.40
2023-01-27T17:49:48.828Z,84.40
2023-01-27T17:52:21.642Z,84.58
2023-01-27T17:54:51.529Z,84.35
2023-01-27T17:57:23.311Z,84.58
2023-01-27T18:00:00.237Z,84.11
2023-01-27T18:02:34.361Z,84.55
2023-01-27T18:05:06.316Z,84.58
2023-01-27T18:07:35.375Z,84.35
2023-01-27T18:10:24.347Z,83.50
2023-01-27T18:12:54.811Z,83.74
2023-01-27T18:15:43.110Z,82.96
2023-01-27T18:18:24.991Z,82.63
2023-01-27T18:21:04.861Z,82.85
2023-01-27T18:23:35.867Z,82.64
2023-01-27T18:26:16.342Z,82.53
2023-01-27T18:28:46.939Z,82.47
2023-01-27T18:31:19.746Z,82.58
2023-01-27T18:33:58.671Z,83.05
2023-01-27T18:36:33.265Z,82.75
2023-01-27T18:39:02.601Z,82.55
2023-01-27T18:41:38.176Z,82.43
2023-01-27T18:44:08.502Z,81.78
2023-01-27T18:46:37.355Z,81.86
2023-01-27T18:49:13.518Z,82.00
2023-01-27T18:51:42.607Z,82.12
2023-01-27T18:54:19.932Z,81.84
2023-01-27T18:56:54.070Z,81.14
2023-01-27T18:59:28.889Z,81.37
2023-01-27T19:02:00.507Z,81.64
2023-01-27T19:04:33.113Z,80.83
2023-01-27T19:07:04.690Z,80.96
2023-01-27T19:09:33.802Z,80.93
2023-01-27T19:12:03.066Z,80.98
2023-01-27T19:14:31.775Z,80.99
2023-01-27T19:17:00.366Z,81.00
2023-01-27T19:19:30.254Z,81.12
2023-01-27T19:21:58.918Z,80.94
2023-01-27T19:24:30.259Z,80.76
2023-01-27T19:27:01.398Z,81.22
2023-01-27T19:29:32.494Z,81.14
2023-01-27T19:32:02.990Z,81.64
2023-01-27T19:34:37.572Z,81.18
2023-01-27T19:37:21.104Z,81.40
2023-01-27T19:39:51.651Z,81.62
2023-01-27T19:42:37.048Z,80.97
2023-01-27T19:45:10.263Z,81.43
2023-01-27T19:47:39.059Z,81.84
2023-01-27T19:50:17.272Z,81.64
2023-01-27T19:52:49.347Z,82.04
2023-01-27T19:55:20.318Z,81.06
2023-01-27T19:57:51.387Z,80.86
2023-01-27T20:00:24.309Z,80.56
2023-01-27T20:02:53.507Z,80.96
2023-01-27T20:05:24.467Z,80.94
2023-01-27T20:07:54.488Z,80.95
2023-01-27T20:10:26.297Z,81.32
2023-01-27T20:13:09.165Z,80.86
2023-01-27T20:15:47.425Z,81.01
2023-01-27T20:18:23.898Z,81.28
2023-01-27T20:20:54.535Z,81.28
2023-01-27T20:23:23.240Z,81.85
2023-01-27T20:25:57.740Z,81.81
2023-01-27T20:28:28.171Z,82.49
2023-01-27T20:30:57.572Z,82.36
2023-01-27T20:33:28.853Z,82.71
2023-01-27T20:36:07.227Z,82.13
2023-01-27T20:38:37.157Z,82.20
2023-01-27T20:41:08.126Z,81.87
2023-01-27T20:43:37.166Z,82.29
2023-01-27T20:46:06.989Z,81.91
2023-01-27T20:48:36.786Z,81.89
2023-01-27T20:51:09.540Z,81.23
2023-01-27T20:53:43.328Z,81.48
2023-01-27T20:56:12.799Z,81.47
2023-01-27T20:58:41.706Z,81.45
2023-01-27T21:01:12.716Z,81.70
2023-01-27T21:03:42.320Z,81.53
2023-01-27T21:06:15.762Z,81.32
2023-01-27T21:08:47.755Z,81.44
2023-01-27T21:11:18.759Z,81.07
2023-01-27T21:13:48.722Z,81.45
2023-01-27T21:16:17.883Z,81.46
2023-01-27T21:18:47.665Z,81.94
2023-01-27T21:21:24.135Z,81.51
2023-01-27T21:23:53.300Z,81.80
2023-01-27T21:26:22.366Z,80.43
2023-01-27T21:28:52.078Z,79.93
2023-01-27T21:31:24.343Z,80.05
2023-01-27T21:33:53.919Z,79.60
2023-01-27T21:36:26.461Z,79.65
2023-01-27T21:38:56.897Z,79.78
2023-01-27T21:41:45.044Z,79.15
2023-01-27T21:44:36.235Z,79.14
2023-01-27T21:47:06.862Z,78.78
2023-01-27T21:49:58.593Z,78.33
2023-01-27T21:52:33.546Z,78.79
2023-01-27T21:55:04.440Z,78.07
2023-01-27T21:57:34.368Z,77.36
2023-01-27T22:00:03.585Z,78.50
2023-01-27T22:02:32.957Z,78.00
2023-01-27T22:05:02.875Z,78.13
2023-01-27T22:07:38.471Z,77.95
2023-01-27T22:10:10.057Z,77.33
2023-01-27T22:12:42.363Z,77.88
2023-01-27T22:15:14.435Z,77.16
2023-01-27T22:17:45.624Z,77.49
2023-01-27T22:20:15.755Z,77.47
2023-01-27T22:22:47.234Z,77.90
2023-01-27T22:25:17.432Z,77.65
2023-01-27T22:27:46.716Z,77.36
2023-01-27T22:30:17.457Z,77.81
2023-01-27T22:32:48.069Z,77.23
2023-01-27T22:35:18.634Z,77.55
2023-01-27T22:37:50.531Z,78.04
2023-01-27T22:40:21.718Z,77.58
2023-01-27T22:42:51.467Z,76.43
2023-01-27T22:45:20.652Z,76.43
2023-01-27T22:47:50.264Z,76.56
2023-01-27T22:50:19.746Z,76.82
2023-01-27T22:52:49.793Z,77.45
2023-01-27T22:55:20.347Z,77.91
2023-01-27T22:57:49.077Z,77.87
2023-01-27T23:00:18.317Z,78.37
2023-01-27T23:03:02.969Z,78.87
2023-01-27T23:05:31.555Z,78.51
2023-01-27T23:08:01.385Z,78.58
2023-01-27T23:10:30.032Z,78.09
2023-01-27T23:12:58.450Z,77.77
2023-01-27T23:15:27.089Z,78.14
2023-01-27T23:17:55.495Z,77.42
2023-01-27T23:20:24.546Z,77.38
2023-01-27T23:22:53.020Z,77.92
2023-01-27T23:25:22.818Z,77.34
2023-01-27T23:27:51.498Z,77.84
2023-01-27T23:30:20.250Z,77.22
2023-01-27T23:32:48.671Z,76.25
2023-01-27T23:35:17.619Z,76.48
2023-01-27T23:37:46.075Z,76.12
2023-01-27T23:40:15.168Z,76.45
2023-01-27T23:42:45.017Z,76.40
2023-01-27T23:45:13.822Z,75.96
2023-01-27T23:47:42.493Z,76.02
2023-01-27T23:50:12.320Z,76.05
2023-01-27T23:52:40.894Z,76.75
2023-01-27T23:55:09.862Z,76.63
2023-01-27T23:57:38.406Z,75.41
